Terminal Aerodrome Forecast
Issued by NWS Newport/Morehead City, NC

Home | Current Version | Previous Version | Graphics & Text | Print | Product List | Glossary Off
Versions: 1 2 3 4 5 6 7 8 9 10 11 12 13 14 15

000
FTUS42 KMHX 292300
TAFEWN
TAF
KEWN 292331Z 3000/3024 07003KT P6SM SCT030
      TEMPO 3000/3001 BKN020
     FM300800 VRB02KT 3SM BR BKN005
     FM301230 14006KT P6SM SCT040=

USA.gov is the U.S. government's official web portal to all federal, state and local government web resources and services.